Latest Weather Observations for Cato Island

IDQ60801

Issued at 10:02 pm EST Tuesday 6 December 2016 (issued every 30 minutes, with the page automatically refreshed every 10 minutes)

About weather observations | Map of weather stations | Latest weather observations for QLD | Other Formats
Station Details ID: 200601 Name: CATO ISLAND Lat: -23.25 Lon: 155.54 Height: 6.3 m
Data from the previous 72 hours. | See also: Recent months for locations in Queensland
Date/Time
EST
Temp
°C
App
Temp
°C
Dew
Point
°C
Rel
Hum
%
Delta-T
°C
Wind Press
QNH
hPa
Press
MSL
hPa
Rain since
9am
mm
Dir  Spd
km/h
Gust
km/h
Spd
kts
Gust
kts
06/10:00pm 24.6 - - - - NE 30 35 16 19 1014.0 - -
06/09:30pm 24.7 - - - - ENE 32 37 17 20 1014.3 - -
06/09:00pm 24.9 - - - - ENE 28 33 15 18 1014.4 1014.4 -
06/08:30pm 24.8 - - - - ENE 30 35 16 19 1014.3 - -
06/08:00pm 24.8 - - - - ENE 28 33 15 18 1014.3 1014.3 -
06/07:30pm 24.8 - - - - ENE 28 33 15 18 1014.2 - -
06/07:00pm 24.8 - - - - ENE 28 33 15 18 1014.2 1014.2 -
06/06:30pm 24.9 - - - - ENE 26 32 14 17 1014.1 - -
06/06:00pm 25.0 - - - - ENE 28 32 15 17 1013.8 1013.9 -
06/05:30pm 25.2 - - - - ENE 26 30 14 16 1013.6 - -
06/05:00pm 25.5 - - - - ENE 24 30 13 16 1013.5 1013.5 -
06/04:30pm 25.8 - - - - ENE 24 28 13 15 1013.4 - -
06/04:00pm 26.0 - - - - ENE 24 30 13 16 1013.5 1013.5 -
06/03:30pm 25.7 - - - - E 24 28 13 15 1013.5 - -
06/03:00pm 26.1 - - - - E 24 26 13 14 1014.0 1014.0 -
06/02:30pm 25.8 - - - - E 22 28 12 15 1014.5 - -
06/02:00pm 25.9 - - - - E 22 26 12 14 1015.0 1015.0 -
06/01:30pm 26.5 - - - - E 24 28 13 15 1015.1 - -
06/01:00pm 26.2 - - - - E 24 28 13 15 1015.4 1015.4 -
06/12:30pm 26.1 - - - - E 24 28 13 15 1015.8 - -
06/12:00pm 26.3 - - - - E 22 26 12 14 1016.3 1016.3 -
06/11:30am 26.1 - - - - E 24 28 13 15 1016.6 - -
06/11:00am 25.7 - - - - ESE 22 26 12 14 1017.0 1017.0 -
06/10:30am 26.6 - - - - E 20 26 11 14 1017.4 - -
06/10:00am 26.2 - - - - E 22 26 12 14 1017.7 1017.7 -
06/09:30am 26.3 - - - - E 20 24 11 13 1017.9 - -
06/09:00am 25.9 - - - - E 20 24 11 13 1018.1 1018.1 -
06/08:30am 26.3 - - - - ENE 20 26 11 14 1017.7 - -
06/08:00am 25.7 - - - - ENE 20 26 11 14 1017.4 1017.4 -
06/07:30am 25.8 - - - - ENE 24 28 13 15 1016.6 - -
06/07:00am 25.1 - - - - ENE 24 30 13 16 1016.2 1016.3 -
06/06:30am 25.3 - - - - ENE 24 30 13 16 1015.8 - -
06/06:00am 24.7 - - - - NE 24 28 13 15 1015.6 1015.6 -
06/05:30am 24.4 - - - - NE 26 30 14 16 1015.2 - -
06/05:00am 23.8 - - - - NE 26 32 14 17 1014.7 1014.8 -
06/04:30am 23.8 - - - - NE 26 30 14 16 1014.7 - -
06/04:00am 24.0 - - - - NE 28 32 15 17 1014.8 1014.8 -
06/03:30am 24.2 - - - - NE 32 35 17 19 1014.2 - -
06/03:00am 24.2 - - - - ENE 30 37 16 20 1013.9 1013.9 -
06/02:30am 24.3 - - - - ENE 30 35 16 19 1014.1 - -
06/02:00am 24.2 - - - - NE 26 32 14 17 1014.2 1014.2 -
06/01:30am 24.3 - - - - ENE 30 33 16 18 1014.4 - -
06/01:00am 24.3 - - - - ENE 32 39 17 21 1014.7 1014.7 -
06/12:30am 24.3 - - - - ENE 33 39 18 21 1014.9 - -
06/12:00am 24.4 - - - - NE 32 35 17 19 1015.3 1015.3 -
 
Date/Time
EST
Temp
°C
App
Temp
°C
Dew
Point
°C
Rel
Hum
%
Delta-T
°C
Wind Press
QNH
hPa
Press
MSL
hPa
Rain since
9am
mm
Dir  Spd
km/h
Gust
km/h
Spd
kts
Gust
kts
05/11:30pm 24.3 - - - - ENE 33 39 18 21 1015.8 - -
05/11:00pm 24.3 - - - - ENE 32 39 17 21 1016.0 1016.1 -
05/10:30pm 24.4 - - - - ENE 32 37 17 20 1016.3 - -
05/10:00pm 24.6 - - - - ENE 30 35 16 19 1016.4 1016.4 -
05/09:30pm 24.6 - - - - ENE 30 35 16 19 1016.3 - -
05/09:00pm 24.5 - - - - ENE 28 32 15 17 1016.3 1016.3 -
05/08:30pm 24.5 - - - - E 24 37 13 20 1016.2 - -
05/08:00pm 24.5 - - - - E 26 30 14 16 1015.9 1015.9 -
05/07:30pm 24.5 - - - - ENE 24 30 13 16 1015.6 - -
05/07:00pm 24.4 - - - - E 24 30 13 16 1015.3 1015.3 -
05/06:30pm 24.5 - - - - E 24 28 13 15 1015.1 - -
05/06:00pm 24.6 - - - - E 24 30 13 16 1014.9 1014.9 -
05/05:30pm 24.7 - - - - E 22 28 12 15 1014.8 - -
05/05:00pm 24.8 - - - - E 20 24 11 13 1014.6 1014.6 -
05/04:30pm 25.1 - - - - E 22 26 12 14 1014.4 - -
05/04:00pm 25.3 - - - - E 19 24 10 13 1014.3 1014.3 -
05/03:30pm 25.3 - - - - E 20 26 11 14 1014.1 - -
05/03:00pm 25.9 - - - - E 20 24 11 13 1014.3 1014.3 -
05/02:30pm 26.0 - - - - E 20 26 11 14 1014.6 - -
05/02:00pm 26.6 - - - - E 19 22 10 12 1014.8 1014.7 -
05/01:30pm 25.6 - - - - E 22 26 12 14 1015.0 - -
05/01:00pm 26.4 - - - - E 19 20 10 11 1015.3 1015.3 -
05/12:30pm 26.3 - - - - E 19 24 10 13 1015.4 - -
05/12:00pm 27.1 - - - - ENE 19 20 10 11 1015.8 1015.8 -
05/11:30am 26.6 - - - - ENE 19 20 10 11 1016.0 - -
05/11:00am 27.2 - - - - ENE 20 24 11 13 1016.2 1016.2 -
05/10:30am 26.7 - - - - ENE 20 26 11 14 1016.5 - -
05/10:00am 26.8 - - - - ENE 19 26 10 14 1016.9 1016.9 -
05/09:30am 26.4 - - - - ENE 22 24 12 13 1016.7 - -
05/09:00am 26.3 - - - - ENE 22 26 12 14 1016.8 1016.8 -
05/08:30am 25.6 - - - - E 22 28 12 15 1016.8 - -
05/08:00am 25.5 - - - - E 20 24 11 13 1016.9 1016.9 -
05/07:30am 25.3 - - - - ENE 22 26 12 14 1016.7 - -
05/07:00am 25.1 - - - - E 26 30 14 16 1016.6 1016.6 -
05/06:30am 24.7 - - - - ENE 19 22 10 12 1016.5 - -
05/06:00am 25.0 - - - - E 22 26 12 14 1016.2 1016.2 -
05/05:30am 24.6 - - - - E 24 30 13 16 1015.9 - -
05/05:00am 24.5 - - - - ENE 26 30 14 16 1015.4 1015.4 -
05/04:30am 24.3 - - - - ENE 26 30 14 16 1015.0 - -
05/04:00am 24.3 - - - - ENE 28 32 15 17 1014.8 1014.8 -
05/03:30am 24.4 - - - - ENE 30 35 16 19 1014.6 - -
05/03:00am 24.2 - - - - E 30 37 16 20 1014.6 1014.6 -
05/02:30am 24.4 - - - - ENE 28 33 15 18 1014.7 - -
05/02:00am 24.3 - - - - ENE 28 32 15 17 1014.8 1014.8 -
05/01:30am 24.2 - - - - ENE 30 33 16 18 1014.9 - -
05/01:00am 24.3 - - - - ENE 28 32 15 17 1015.3 1015.3 -
05/12:30am 24.3 - - - - ENE 28 32 15 17 1015.6 - -
05/12:00am 24.4 - - - - E 30 33 16 18 1016.0 1016.0 -
 
Date/Time
EST
Temp
°C
App
Temp
°C
Dew
Point
°C
Rel
Hum
%
Delta-T
°C
Wind Press
QNH
hPa
Press
MSL
hPa
Rain since
9am
mm
Dir  Spd
km/h
Gust
km/h
Spd
kts
Gust
kts
04/11:30pm 24.5 - - - - E 30 33 16 18 1016.2 - -
04/11:00pm 24.5 - - - - E 28 33 15 18 1016.3 1016.3 -
04/10:30pm 24.6 - - - - E 28 33 15 18 1016.4 - -
04/10:00pm 24.5 - - - - E 26 30 14 16 1016.4 1016.4 -
04/09:30pm 24.6 - - - - E 24 28 13 15 1016.5 - -
04/09:00pm 24.6 - - - - E 24 30 13 16 1016.2 1016.2 -
04/08:30pm 24.6 - - - - E 22 26 12 14 1016.0 - -
04/08:00pm 24.5 - - - - E 20 26 11 14 1015.7 1015.7 -
04/07:30pm 24.6 - - - - E 20 24 11 13 1015.7 - -
04/07:00pm 24.6 - - - - E 19 24 10 13 1015.5 1015.5 -
04/06:30pm 24.7 - - - - E 19 22 10 12 1015.4 - -
04/06:00pm 24.7 - - - - E 19 22 10 12 1015.1 1015.1 -
04/05:30pm 24.9 - - - - E 19 20 10 11 1014.8 - -
04/05:00pm 25.1 - - - - E 19 22 10 12 1014.8 1014.8 -
04/04:30pm 25.6 - - - - E 17 20 9 11 1014.5 - -
04/04:00pm 25.8 - - - - E 17 20 9 11 1014.4 1014.4 -
04/03:30pm 26.0 - - - - E 15 19 8 10 1014.7 - -
04/03:00pm 26.3 - - - - E 13 15 7 8 1014.8 1014.8 -
04/02:30pm 26.7 - - - - ENE 15 19 8 10 1014.9 - -
04/02:00pm 26.8 - - - - ENE 17 20 9 11 1015.0 1015.0 -
04/01:30pm 26.7 - - - - ENE 17 20 9 11 1015.2 - -
04/01:00pm 27.8 - - - - NE 17 22 9 12 1015.2 1015.3 -
04/12:30pm 27.4 - - - - NE 20 26 11 14 1015.4 - -
04/12:00pm 27.6 - - - - NE 22 26 12 14 1015.6 1015.6 -
04/11:30am 28.0 - - - - NE 22 26 12 14 1015.8 - -
04/11:00am 27.9 - - - - NE 22 28 12 15 1016.2 1016.2 -
04/10:30am 27.7 - - - - NE 22 28 12 15 1016.4 - -
04/10:00am 27.4 - - - - ENE 22 26 12 14 1016.7 1016.7 -
04/09:30am 27.5 - - - - NE 22 24 12 13 1016.7 - -
04/09:00am 26.6 - - - - ENE 24 28 13 15 1016.8 1016.8 -
04/08:30am 26.8 - - - - NE 26 32 14 17 1016.5 - -
04/08:00am 26.2 - - - - ENE 30 35 16 19 1016.4 1016.4 -
04/07:30am 25.8 - - - - ENE 32 35 17 19 1016.2 - -
04/07:00am 25.8 - - - - NE 30 33 16 18 1016.1 1016.1 -
04/06:30am 25.3 - - - - ENE 30 33 16 18 1016.1 - -
04/06:00am 24.9 - - - - ENE 28 32 15 17 1015.9 1015.9 -
04/05:30am 24.6 - - - - ENE 26 30 14 16 1015.9 - -
04/05:00am 24.0 - - - - ENE 24 28 13 15 1015.4 1015.5 -
04/04:30am 23.8 - - - - NE 26 32 14 17 1014.7 - -
04/04:00am 23.8 - - - - ENE 24 28 13 15 1014.8 1014.9 -
04/03:30am 24.0 - - - - ENE 20 24 11 13 1015.0 - -
04/03:00am 24.2 - - - - E 19 22 10 12 1015.5 1015.5 -
04/02:30am 24.0 - - - - E 19 22 10 12 1015.7 - -
04/02:00am 24.2 - - - - E 19 22 10 12 1016.4 1016.4 -
04/01:30am 24.3 - - - - ESE 20 24 11 13 1016.8 - -
04/01:00am 24.4 - - - - E 20 24 11 13 1016.4 1016.5 -
04/12:30am 24.3 - - - - E 24 30 13 16 1016.7 - -
04/12:00am 24.3 - - - - E 26 28 14 15 1016.6 1016.6 -
 
Date/Time
EST
Temp
°C
App
Temp
°C
Dew
Point
°C
Rel
Hum
%
Delta-T
°C
Wind Press
QNH
hPa
Press
MSL
hPa
Rain since
9am
mm
Dir  Spd
km/h
Gust
km/h
Spd
kts
Gust
kts
03/11:30pm 24.4 - - - - E 24 30 13 16 1016.7 - -
03/11:00pm 24.4 - - - - E 24 28 13 15 1017.2 1017.1 -
03/10:30pm 24.5 - - - - E 24 28 13 15 1017.3 - -

Other Formats:

Comma delimited format used in spreadsheet applications
http://www.bom.gov.au/fwo/IDQ60801/IDQ60801.94394.axf

JavaScript Object Notation format (JSON) in row-major order
http://www.bom.gov.au/fwo/IDQ60801/IDQ60801.94394.json